Flight Track Log - Related Links

Times and Time Zones

All times are in EDT time to prevent confusion due to time zone crossing. See the ASQ4260 flight status page for this flight to view local times or setup timezone preferences in your user account.

Time Position Orientation Groundspeed Altitude Reporting Facility
EDT Latitude Longitude Course Direction KTS MPH feet Rate Location/Type
Sat 11:36:27 AM 32.8700 -80.1744 273° West 216 249 5,200  Level Jacksonville Center
Sat 11:37:27 AM 32.8819 -80.2458 281° West 248 285 7,300 2,250 Climbing Jacksonville Center
Sat 11:38:27 AM 32.9025 -80.3342 286° West 271 312 9,700 2,150 Climbing Jacksonville Center
Sat 11:39:27 AM 32.9211 -80.4278 283° West 283 326 11,600 1,550 Climbing Jacksonville Center
Sat 11:40:27 AM 32.9317 -80.5364 277° West 304 350 12,800 1,350 Climbing Jacksonville Center
Sat 11:41:27 AM 32.9317 -80.6528 270° West 336 387 14,300 1,500 Climbing Jacksonville Center
Sat 11:42:27 AM 32.9461 -80.7711 278° West 358 412 15,800 1,500 Climbing Jacksonville Center
Sat 11:43:27 AM 32.9628 -80.8897 280° West 365 420 17,300 1,400 Climbing Jacksonville Center
Sat 11:44:27 AM 32.9792 -81.0081 279° West 370 426 18,600 1,400 Climbing Jacksonville Center
Sat 11:45:27 AM 32.9956 -81.1267 279° West 370 426 20,100 1,500 Climbing Jacksonville Center
Sat 11:46:27 AM 33.0139 -81.2500 280° West 370 426 21,600 1,457 Climbing Jacksonville Center
Sat 11:48:20 AM 33.0408 -81.4617 279° West 351 404 24,300 1,318 Climbing Atlanta Center
Sat 11:49:20 AM 33.0581 -81.5825 280° West 357 411 25,400 1,050 Climbing Atlanta Center
Sat 11:50:20 AM 33.0750 -81.7061 279° West 368 423 26,400 1,000 Climbing Atlanta Center
Sat 11:51:20 AM 33.0919 -81.8297 279° West 379 436 27,400 1,000 Climbing Atlanta Center
Sat 11:52:20 AM 33.1086 -81.9556 279° West 385 443 28,400 1,000 Climbing Atlanta Center
Sat 11:53:20 AM 33.1253 -82.0842 279° West 385 443 29,400 1,050 Climbing Atlanta Center
Sat 11:54:20 AM 33.1419 -82.2128 279° West 385 443 30,500 1,050 Climbing Atlanta Center
Sat 11:55:20 AM 33.1583 -82.3417 279° West 391 450 31,500 1,000 Climbing Atlanta Center
Sat 11:56:20 AM 33.1728 -82.4703 278° West 391 450 32,500 1,000 Climbing Atlanta Center
Sat 11:57:20 AM 33.1908 -82.5992 280° West 396 456 33,500 750 Climbing Atlanta Center
Sat 11:58:20 AM 33.2092 -82.7278 280° West 396 456 34,000 250 Climbing Atlanta Center
Sat 11:59:20 AM 33.2250 -82.8617 278° West 396 456 34,000  Level Atlanta Center
Sat 12:00:20 PM 33.2453 -83.0106 279° West 413 475 34,000  Level Atlanta Center
Sat 12:01:20 PM 33.2608 -83.1469 278° West 419 482 34,000  Level Atlanta Center
Sat 12:02:20 PM 33.2806 -83.2808 280° West 419 482 34,000  Level Atlanta Center
Sat 12:03:20 PM 33.2958 -83.4200 278° West 424 488 34,000  Level Atlanta Center
Sat 12:04:20 PM 33.3133 -83.5592 279° West 429 494 34,000  Level Atlanta Center
Sat 12:05:20 PM 33.3303 -83.6981 278° West 429 494 34,000  Level Atlanta Center
Sat 12:06:20 PM 33.3453 -83.8225 278° West 423 487 34,000  Level Atlanta Center
Sat 12:07:20 PM 33.3600 -83.9617 277° West 428 493 34,000  Level Atlanta Center
Sat 12:08:20 PM 33.3767 -84.0986 278° West 423 487 34,000  Level Atlanta Center
Sat 12:09:20 PM 33.3933 -84.2378 278° West 428 493 34,000  Level Atlanta Center
Sat 12:10:20 PM 33.4078 -84.3747 277° West 428 493 34,000  Level Atlanta Center
Sat 12:11:20 PM 33.4258 -84.5292 278° West 428 493 34,000  Level Atlanta Center
Sat 12:12:20 PM 33.4419 -84.6711 278° West 428 493 34,000  Level Atlanta Center
Sat 12:13:20 PM 33.4578 -84.8131 278° West 428 493 34,000  Level Atlanta Center
Sat 12:14:20 PM 33.4736 -84.9528 278° West 428 493 34,000  Level Atlanta Center
Sat 12:15:20 PM 33.4892 -85.0950 278° West 428 493 34,000  Level Atlanta Center
Sat 12:16:20 PM 33.5047 -85.2347 278° West 428 493 34,000  Level Atlanta Center
Sat 12:17:20 PM 33.5200 -85.3744 278° West 430 495 34,000  Level Atlanta Center
Sat 12:18:20 PM 33.5311 -85.4967 276° West 422 486 34,000  Level Atlanta Center
Sat 12:19:20 PM 33.5481 -85.6317 279° West 422 486 34,000  Level Atlanta Center
Sat 12:20:20 PM 33.5631 -85.7714 277° West 422 486 34,000  Level Atlanta Center
Sat 12:21:20 PM 33.5756 -85.9039 276° West 422 486 34,000  Level Atlanta Center
Sat 12:22:20 PM 33.5608 -86.0431 263° West 422 486 34,000  Level Atlanta Center
Sat 12:23:20 PM 33.5192 -86.1742 249° West 422 486 34,000  Level Atlanta Center
Sat 12:24:20 PM 33.4747 -86.3125 249° West 434 499 34,000  Level Atlanta Center
Sat 12:25:20 PM 33.4219 -86.4631 247° West 449 517 34,000  Level Atlanta Center
Sat 12:26:20 PM 33.3772 -86.5986 248° West 449 517 34,000  Level Atlanta Center
Sat 12:27:20 PM 33.3350 -86.7292 249° West 443 510 34,000  Level Atlanta Center
Sat 12:28:20 PM 33.3014 -86.8350 249° West 431 496 34,000  Level Atlanta Center
Sat 12:29:20 PM 33.2539 -86.9850 249° West 431 496 34,000  Level Atlanta Center
Sat 12:30:20 PM 33.2025 -87.1272 247° West 431 496 34,000  Level Atlanta Center
Sat 12:32:20 PM 33.1125 -87.3958 248° West 433 498 34,000  Level Memphis Center
Sat 12:33:20 PM 33.0656 -87.5339 248° West 440 506 34,000  Level Memphis Center
Sat 12:34:20 PM 33.0206 -87.6667 248° West 440 506 34,000  Level Memphis Center
Sat 12:35:20 PM 32.9756 -87.8017 248° West 440 506 34,000  Level Memphis Center
Sat 12:36:20 PM 32.9381 -87.9217 250° West 440 506 34,000  Level Memphis Center
Sat 12:37:20 PM 32.8947 -88.0514 248° West 435 501 34,000  Level Memphis Center
Sat 12:38:20 PM 32.8469 -88.1836 247° West 435 501 34,000  Level Memphis Center
Sat 12:39:20 PM 32.8033 -88.3133 248° West 435 501 34,000  Level Memphis Center
Sat 12:40:20 PM 32.7553 -88.4478 247° West 440 506 34,000  Level Memphis Center
Sat 12:41:20 PM 32.7114 -88.5794 248° West 440 506 34,000  Level Memphis Center
Sat 12:42:20 PM 32.6653 -88.7114 247° West 440 506 34,000  Level Memphis Center
Sat 12:43:20 PM 32.6189 -88.8428 247° West 440 506 34,000  Level Memphis Center
Sat 12:44:20 PM 32.5703 -88.9719 246° West 440 506 34,000  Level Memphis Center
Sat 12:45:20 PM 32.5236 -89.1056 248° West 440 506 34,000  Level Memphis Center
Sat 12:46:20 PM 32.4769 -89.2369 247° West 440 506 34,000  Level Memphis Center
Sat 12:47:20 PM 32.4300 -89.3703 247° West 440 506 34,000  Level Memphis Center
Sat 12:48:20 PM 32.3831 -89.5011 247° West 440 506 34,000  Level Memphis Center
Sat 12:49:20 PM 32.3358 -89.6294 246° West 440 506 34,000  Level Memphis Center
Sat 12:50:20 PM 32.2864 -89.7603 246° West 440 506 34,000  Level Memphis Center
Sat 12:51:22 PM 32.2411 -89.8906 248° West 440 506 34,000  Level Memphis Center
Sat 12:52:20 PM 32.1933 -90.0186 246° West 440 506 34,000  Level Memphis Center
Sat 12:53:20 PM 32.1478 -90.1489 248° West 440 506 34,000  Level Memphis Center
Sat 12:54:20 PM 32.1019 -90.2764 247° West 440 506 34,000  Level Memphis Center
Sat 12:55:20 PM 32.0539 -90.4039 246° West 440 506 34,000  Level Memphis Center
Sat 12:56:20 PM 32.0017 -90.5436 246° West 440 506 34,000  Level Memphis Center
Sat 12:57:56 PM 31.9367 -90.7214 247° West 425 489 34,000  Level Houston Center
Sat 12:58:57 PM 31.8853 -90.8589 246° West 421 484 34,000  Level Houston Center
Sat 12:59:59 PM 31.8381 -90.9847 246° West 421 484 34,000  Level Houston Center
Sat 01:01:01 PM 31.7919 -91.1108 247° West 422 486 34,000  Level Houston Center
Sat 01:02:03 PM 31.7339 -91.2611 246° West 421 484 34,000  Level Houston Center
Sat 01:03:05 PM 31.6864 -91.3875 246° West 422 486 34,000  Level Houston Center
Sat 01:04:07 PM 31.6392 -91.5119 246° West 417 480 34,000  Level Houston Center
Sat 01:05:09 PM 31.5919 -91.6372 246° West 419 482 34,000  Level Houston Center
Sat 01:06:10 PM 31.5433 -91.7619 245° Southwest 421 484 34,000  Level Houston Center
Sat 01:07:12 PM 31.4956 -91.8858 246° West 417 480 34,000  Level Houston Center
Sat 01:08:14 PM 31.4378 -92.0347 246° West 418 481 34,000  Level Houston Center
Sat 01:09:16 PM 31.3967 -92.1381 245° Southwest 416 479 34,000  Level Houston Center
Sat 01:10:18 PM 31.3394 -92.2867 246° West 417 480 34,000  Level Houston Center
Sat 01:11:20 PM 31.2917 -92.4075 245° Southwest 413 475 34,000  Level Houston Center
Sat 01:12:22 PM 31.2411 -92.5333 245° Southwest 420 483 34,000  Level Houston Center
Sat 01:13:23 PM 31.1753 -92.6456 236° Southwest 424 488 34,000  Level Houston Center
Sat 01:14:25 PM 31.1128 -92.7586 237° Southwest 419 482 34,000  Level Houston Center
Sat 01:15:27 PM 31.0494 -92.8719 237° Southwest 417 480 34,000  Level Houston Center
Sat 01:16:29 PM 30.9858 -92.9831 236° Southwest 415 478 34,000 -387 Level Houston Center
Sat 01:17:31 PM 30.9103 -93.1183 237° Southwest 415 478 33,200 -871 Descending Houston Center
Sat 01:18:33 PM 30.8475 -93.2300 237° Southwest 413 475 32,200 -1,268 Descending Houston Center
Sat 01:19:34 PM 30.7714 -93.3331 229° Southwest 430 495 30,600 -1,951 Descending Houston Center
Sat 01:20:36 PM 30.6767 -93.4244 220° Southwest 443 510 28,200 -2,274 Descending Houston Center
Sat 01:21:38 PM 30.5828 -93.5189 221° Southwest 453 521 25,900 -2,081 Descending Houston Center
Sat 01:22:40 PM 30.5092 -93.6608 239° Southwest 438 504 23,900 -1,839 Descending Houston Center
Sat 01:23:42 PM 30.4569 -93.7797 243° Southwest 425 489 22,100 -2,081 Descending Houston Center
Sat 01:24:44 PM 30.4053 -93.8961 243° Southwest 415 478 19,600 -2,274 Descending Houston Center
Sat 01:25:46 PM 30.3544 -94.0103 243° Southwest 405 466 17,400 -2,195 Descending Houston Center
Sat 01:26:47 PM 30.3036 -94.1239 243° Southwest 401 461 15,100 -2,485 Descending Houston Center
Sat 01:27:25 PM 30.2650 -94.2106 243° Southwest 400 460 13,300 -2,613 Descending Houston Center
Sat 01:27:49 PM 30.2442 -94.2592 244° Southwest 394 453 12,400 -1,286 Descending Houston Center
Sat 01:28:21 PM 30.2206 -94.3131 243° Southwest 350 403 12,100 -387 Descending Houston Center
Sat 01:28:51 PM 30.1994 -94.3592 242° Southwest 359 413 12,000 -1,377 Descending Houston Center
Sat 01:29:22 PM 30.1711 -94.4092 237° Southwest 331 381 10,700 -1,742 Descending Houston Center
Sat 01:29:53 PM 30.1519 -94.4475 240° Southwest 326 375 10,200 -1,770 Descending Houston Center
Sat 01:30:23 PM 30.1286 -94.4897 237° Southwest 278 320 8,900 -2,129 Descending Houston Center
Sat 01:30:55 PM 30.1106 -94.5225 238° Southwest 281 323 8,000 -2,066 Descending Houston Center
Sat 01:31:24 PM 30.0878 -94.5650 238° Southwest 268 308 6,800 -1,548 Descending Houston Center
Sat 01:31:57 PM 30.0706 -94.5936 235° Southwest 266 306 6,400 -787 Descending Houston Center
Sat 01:32:25 PM 30.0442 -94.6358 234° Southwest 262 302 6,000 -393 Descending Houston Center
Sat 01:32:58 PM 30.0303 -94.6642 240° Southwest 263 303 6,000 -968 Level Houston Center
Sat 01:33:27 PM 30.0047 -94.7061 235° Southwest 252 290 5,000 -1,355 Descending Houston Center
Sat 01:34:00 PM 29.9933 -94.7306 242° Southwest 250 288 4,600 -1,082 Descending Houston Center
Sat 01:34:28 PM 29.9756 -94.7750 245° Southwest 243 280 3,900 -1,161 Descending Houston Center
Sat 01:35:02 PM 29.9753 -94.8208 270° West 249 287 3,400 -885 Descending Houston Center
Sat 01:35:29 PM 29.9772 -94.8567 274° West 251 289 3,000 -290 Descending Houston Center
Sat 01:36:04 PM 29.9775 -94.9014 270° West 251 289 3,100  Climbing Houston Center
Sat 01:36:30 PM 29.9769 -94.9436 269° West 257 296 3,000  Descending Houston Center
Sat 01:37:06 PM 29.9783 -94.9831 272° West 254 292 3,100  Climbing Houston Center
Sat 01:37:31 PM 29.9764 -95.0258 267° West 252 290 3,000  Descending Houston Center
Sat 01:38:07 PM 29.9775 -95.0642 272° West 255 293 3,100  Climbing Houston Center
Sat 01:38:32 PM 29.9778 -95.1078 270° West 256 295 3,000 -290 Descending Houston Center
Sat 01:39:09 PM 29.9775 -95.1444 270° West 254 292 2,800 -885 Descending Houston Center
Sat 01:39:33 PM 29.9783 -95.1822 271° West 209 241 2,100 -1,750 Descending Houston Center

Login

Don't have an account? Register now (free) for customized features, flight alerts, and more!